Bristol, NH (03222)

02:08 PM EST del 28 novembre 2014 (GMT -0500)
Bristol Village | Change Station
CLOSE
Current Station
Stazione meteo personale
Location: Bristol, NH
Altitudine: 515 ft
Stazioni meteo nelle vicinanze

Alt. 515 ft 43.59 °N, 71.74 °W | Updated 6 seconds ago

Molto nuvoloso
Molto nuvoloso
29.6 °F
Sembra 25 °F
N
4.0
Vento Variabile Vento da Ovest
Gusts 10.0 mph

Oggi
Massima -- | Minima -- °F
--% Possibilità di precip.
Ieri
Massima -- | Minima -- °F
Precip. -- in
6:56 AM 4:12 PM
Luna crescente, 43% visible
Pressione 30.04 in
Visibilità 10.0 miglia
Nuvole Nubi sparse 4500 ft
Raffreddamento del vento 25 °F
Punto di rugiada 18 °F
Umidità 62%
Piovosità 0.00 in
Spessore del manto nevoso Non disponibile.
Raggi UV 0.0 fuori da 12
Polline .10 fuori da 12
Qualità dell'aria Non disponibile.
Flu Activity Non disponibile.
METAR K1P1 281915Z AUTO 27007KT 10SM SCT045 M02/M07 A3004 RMK AO2 T10171071

More Conditions Fewer Conditions

Pressione 30.04 in
Visibilità 10.0 miglia
Nuvole Nubi sparse 4500 ft
Raffreddamento del vento 25 °F
Punto di rugiada 18 °F
Umidità 62%
Piovosità 0.00 in
Spessore del manto nevoso Non disponibile.
Raggi UV 0.0 fuori da 12
Polline .10 fuori da 12
Qualità dell'aria Non disponibile.
Flu Activity Non disponibile.
METAR K1P1 281915Z AUTO 27007KT 10SM SCT045 M02/M07 A3004 RMK AO2 T10171071

More Conditions Fewer Conditions

10-Day Weather Forecast

Almanac

Astronomia

Nov. 28, 2014 Alba Tramonto
Ora attuale
Crepuscolo civile
Crepuscolo nautico
Crepuscolo astronomico
Luna
Estensione della luce visibile
Lunghezza del giorno
Tomorrow will be .
, % of the Moon is Illuminated

Gli estremi di oggi

State Highs State Lows

Community

WunderPhotos

Upload Photos

1,774,261 foto caricate!

WunderBlogs® & News

Nearby

Qualità dell'aria

  Qualità dell'aria Indice AQ Inquinante
Not available.

Profondità neve

Stazione Profondità Altitudine

Attività sismica

Città  Distanza Mag. Data & Ora
Minimo Magnitudo Mostrato è 2.5.

Temperature delle acque costiere

Località Temperatura

Stazioni meteo nelle vicinanze